sensor_id;sensor_type;location;lat;lon;timestamp;P1;durP1;ratioP1;P2;durP2;ratioP2
39322;SDS011;25036;53.638;10.134;2022-09-25T00:00:42;21.13;;;13.90;;
39322;SDS011;25036;53.638;10.134;2022-09-25T00:01:42;18.70;;;13.40;;
39322;SDS011;25036;53.638;10.134;2022-09-25T00:02:42;24.23;;;14.00;;
39322;SDS011;25036;53.638;10.134;2022-09-25T00:03:42;19.50;;;15.18;;
39322;SDS011;25036;53.638;10.134;2022-09-25T00:04:42;22.77;;;15.43;;
39322;SDS011;25036;53.638;10.134;2022-09-25T00:05:43;19.70;;;14.27;;
39322;SDS011;25036;53.638;10.134;2022-09-25T00:06:44;20.45;;;13.75;;
39322;SDS011;25036;53.638;10.134;2022-09-25T00:07:47;20.13;;;14.38;;
39322;SDS011;25036;53.638;10.134;2022-09-25T00:08:47;18.63;;;13.53;;
39322;SDS011;25036;53.638;10.134;2022-09-25T00:09:47;21.95;;;14.55;;
39322;SDS011;25036;53.638;10.134;2022-09-25T00:10:48;21.03;;;13.97;;
39322;SDS011;25036;53.638;10.134;2022-09-25T00:11:49;21.23;;;15.10;;
39322;SDS011;25036;53.638;10.134;2022-09-25T00:12:50;20.92;;;14.45;;
39322;SDS011;25036;53.638;10.134;2022-09-25T00:13:50;21.88;;;14.15;;
39322;SDS011;25036;53.638;10.134;2022-09-25T00:14:51;19.03;;;14.03;;
39322;SDS011;25036;53.638;10.134;2022-09-25T00:15:53;22.13;;;14.80;;
39322;SDS011;25036;53.638;10.134;2022-09-25T00:16:53;22.98;;;15.38;;
39322;SDS011;25036;53.638;10.134;2022-09-25T00:17:54;20.37;;;14.93;;
39322;SDS011;25036;53.638;10.134;2022-09-25T00:18:54;18.63;;;14.53;;
39322;SDS011;25036;53.638;10.134;2022-09-25T00:20:15;21.92;;;14.75;;
39322;SDS011;25036;53.638;10.134;2022-09-25T00:21:16;22.67;;;14.35;;
39322;SDS011;25036;53.638;10.134;2022-09-25T00:22:20;22.83;;;14.48;;
39322;SDS011;25036;53.638;10.134;2022-09-25T00:23:20;23.52;;;15.02;;
39322;SDS011;25036;53.638;10.134;2022-09-25T00:24:20;19.37;;;13.53;;
39322;SDS011;25036;53.638;10.134;2022-09-25T00:25:21;18.67;;;13.88;;
39322;SDS011;25036;53.638;10.134;2022-09-25T00:26:21;19.77;;;14.27;;
39322;SDS011;25036;53.638;10.134;2022-09-25T00:27:21;21.80;;;14.00;;
39322;SDS011;25036;53.638;10.134;2022-09-25T00:28:21;22.57;;;15.03;;
39322;SDS011;25036;53.638;10.134;2022-09-25T00:29:22;25.65;;;14.40;;
39322;SDS011;25036;53.638;10.134;2022-09-25T00:30:22;24.52;;;15.48;;
39322;SDS011;25036;53.638;10.134;2022-09-25T00:31:23;20.17;;;14.75;;
39322;SDS011;25036;53.638;10.134;2022-09-25T00:32:23;23.67;;;16.05;;
39322;SDS011;25036;53.638;10.134;2022-09-25T00:33:24;19.73;;;15.07;;
39322;SDS011;25036;53.638;10.134;2022-09-25T00:34:24;23.17;;;15.70;;
39322;SDS011;25036;53.638;10.134;2022-09-25T00:35:24;24.45;;;15.80;;
39322;SDS011;25036;53.638;10.134;2022-09-25T00:36:24;28.57;;;16.50;;
39322;SDS011;25036;53.638;10.134;2022-09-25T00:37:24;25.23;;;15.68;;
39322;SDS011;25036;53.638;10.134;2022-09-25T00:38:27;25.23;;;15.65;;
39322;SDS011;25036;53.638;10.134;2022-09-25T00:39:27;26.17;;;16.17;;
39322;SDS011;25036;53.638;10.134;2022-09-25T00:40:27;25.47;;;16.70;;
39322;SDS011;25036;53.638;10.134;2022-09-25T00:41:28;24.70;;;16.93;;
39322;SDS011;25036;53.638;10.134;2022-09-25T00:42:30;25.10;;;16.77;;
39322;SDS011;25036;53.638;10.134;2022-09-25T00:43:39;23.42;;;15.82;;
39322;SDS011;25036;53.638;10.134;2022-09-25T00:44:48;26.60;;;16.88;;
39322;SDS011;25036;53.638;10.134;2022-09-25T00:45:51;22.85;;;15.65;;
39322;SDS011;25036;53.638;10.134;2022-09-25T00:46:52;24.38;;;16.95;;
39322;SDS011;25036;53.638;10.134;2022-09-25T00:49:25;25.10;;;15.80;;
39322;SDS011;25036;53.638;10.134;2022-09-25T00:51:23;23.70;;;16.58;;
39322;SDS011;25036;53.638;10.134;2022-09-25T00:52:27;27.20;;;17.08;;
39322;SDS011;25036;53.638;10.134;2022-09-25T00:53:33;22.10;;;15.57;;
39322;SDS011;25036;53.638;10.134;2022-09-25T00:54:35;22.80;;;16.60;;
39322;SDS011;25036;53.638;10.134;2022-09-25T00:55:36;20.67;;;15.20;;
39322;SDS011;25036;53.638;10.134;2022-09-25T00:56:38;22.30;;;15.55;;
39322;SDS011;25036;53.638;10.134;2022-09-25T00:57:39;22.73;;;15.60;;
39322;SDS011;25036;53.638;10.134;2022-09-25T00:58:41;22.48;;;15.70;;
39322;SDS011;25036;53.638;10.134;2022-09-25T00:59:45;23.98;;;16.67;;
39322;SDS011;25036;53.638;10.134;2022-09-25T01:00:46;19.90;;;15.20;;
39322;SDS011;25036;53.638;10.134;2022-09-25T01:01:46;23.83;;;15.35;;
39322;SDS011;25036;53.638;10.134;2022-09-25T01:02:49;22.77;;;17.05;;
39322;SDS011;25036;53.638;10.134;2022-09-25T01:03:51;22.67;;;16.02;;
39322;SDS011;25036;53.638;10.134;2022-09-25T01:04:58;21.77;;;15.38;;
39322;SDS011;25036;53.638;10.134;2022-09-25T01:06:00;23.77;;;15.43;;
39322;SDS011;25036;53.638;10.134;2022-09-25T01:07:00;21.55;;;14.82;;
39322;SDS011;25036;53.638;10.134;2022-09-25T01:08:02;20.17;;;14.70;;
39322;SDS011;25036;53.638;10.134;2022-09-25T01:09:03;18.92;;;14.30;;
39322;SDS011;25036;53.638;10.134;2022-09-25T01:10:04;20.13;;;14.98;;
39322;SDS011;25036;53.638;10.134;2022-09-25T01:11:07;27.38;;;16.48;;
39322;SDS011;25036;53.638;10.134;2022-09-25T01:12:07;22.95;;;15.88;;
39322;SDS011;25036;53.638;10.134;2022-09-25T01:13:08;21.92;;;15.00;;
39322;SDS011;25036;53.638;10.134;2022-09-25T01:14:09;26.25;;;15.45;;
39322;SDS011;25036;53.638;10.134;2022-09-25T01:15:10;26.27;;;15.95;;
39322;SDS011;25036;53.638;10.134;2022-09-25T01:16:17;24.75;;;16.23;;
39322;SDS011;25036;53.638;10.134;2022-09-25T01:17:21;24.58;;;15.70;;
39322;SDS011;25036;53.638;10.134;2022-09-25T01:18:34;24.02;;;17.08;;
39322;SDS011;25036;53.638;10.134;2022-09-25T01:21:45;22.05;;;15.40;;
39322;SDS011;25036;53.638;10.134;2022-09-25T01:24:03;24.45;;;17.20;;
39322;SDS011;25036;53.638;10.134;2022-09-25T01:25:26;26.25;;;17.02;;
39322;SDS011;25036;53.638;10.134;2022-09-25T01:26:49;25.85;;;15.40;;
39322;SDS011;25036;53.638;10.134;2022-09-25T01:28:13;24.83;;;15.85;;
39322;SDS011;25036;53.638;10.134;2022-09-25T01:29:30;23.08;;;16.17;;
39322;SDS011;25036;53.638;10.134;2022-09-25T01:30:35;25.15;;;16.27;;
39322;SDS011;25036;53.638;10.134;2022-09-25T01:31:40;26.50;;;15.95;;
39322;SDS011;25036;53.638;10.134;2022-09-25T01:32:43;25.80;;;14.82;;
39322;SDS011;25036;53.638;10.134;2022-09-25T01:33:46;24.58;;;16.45;;
39322;SDS011;25036;53.638;10.134;2022-09-25T01:35:06;24.52;;;16.77;;
39322;SDS011;25036;53.638;10.134;2022-09-25T01:39:36;24.85;;;16.98;;
39322;SDS011;25036;53.638;10.134;2022-09-25T01:40:45;24.95;;;17.27;;
39322;SDS011;25036;53.638;10.134;2022-09-25T01:41:52;24.20;;;16.75;;
39322;SDS011;25036;53.638;10.134;2022-09-25T01:43:00;28.13;;;17.65;;
39322;SDS011;25036;53.638;10.134;2022-09-25T01:44:08;29.05;;;17.98;;
39322;SDS011;25036;53.638;10.134;2022-09-25T01:45:11;28.67;;;17.48;;
39322;SDS011;25036;53.638;10.134;2022-09-25T01:46:14;25.10;;;16.42;;
39322;SDS011;25036;53.638;10.134;2022-09-25T01:47:16;25.10;;;17.95;;
39322;SDS011;25036;53.638;10.134;2022-09-25T01:48:18;26.55;;;18.15;;
39322;SDS011;25036;53.638;10.134;2022-09-25T01:49:21;27.90;;;17.77;;
39322;SDS011;25036;53.638;10.134;2022-09-25T01:50:58;22.95;;;17.27;;
39322;SDS011;25036;53.638;10.134;2022-09-25T01:51:53;26.30;;;16.63;;
39322;SDS011;25036;53.638;10.134;2022-09-25T01:52:55;23.83;;;17.63;;
39322;SDS011;25036;53.638;10.134;2022-09-25T01:54:02;23.55;;;17.30;;
39322;SDS011;25036;53.638;10.134;2022-09-25T01:55:18;23.67;;;17.67;;
39322;SDS011;25036;53.638;10.134;2022-09-25T01:56:20;22.70;;;16.88;;
39322;SDS011;25036;53.638;10.134;2022-09-25T01:57:33;25.95;;;17.80;;
39322;SDS011;25036;53.638;10.134;2022-09-25T01:58:40;23.67;;;16.80;;
39322;SDS011;25036;53.638;10.134;2022-09-25T01:59:44;23.10;;;16.40;;
39322;SDS011;25036;53.638;10.134;2022-09-25T02:00:48;21.73;;;16.60;;
39322;SDS011;25036;53.638;10.134;2022-09-25T02:01:50;21.60;;;16.48;;
39322;SDS011;25036;53.638;10.134;2022-09-25T02:02:51;23.23;;;17.45;;
39322;SDS011;25036;53.638;10.134;2022-09-25T02:03:57;22.40;;;16.77;;
39322;SDS011;25036;53.638;10.134;2022-09-25T02:06:31;19.85;;;16.25;;
39322;SDS011;25036;53.638;10.134;2022-09-25T02:07:34;18.25;;;14.52;;
39322;SDS011;25036;53.638;10.134;2022-09-25T02:08:40;21.65;;;15.93;;
39322;SDS011;25036;53.638;10.134;2022-09-25T02:09:44;23.50;;;15.95;;
39322;SDS011;25036;53.638;10.134;2022-09-25T02:10:47;21.85;;;16.15;;
39322;SDS011;25036;53.638;10.134;2022-09-25T02:11:49;20.08;;;17.13;;
39322;SDS011;25036;53.638;10.134;2022-09-25T02:12:50;20.20;;;17.73;;
39322;SDS011;25036;53.638;10.134;2022-09-25T02:13:53;20.67;;;16.75;;
39322;SDS011;25036;53.638;10.134;2022-09-25T02:14:56;20.48;;;16.77;;
39322;SDS011;25036;53.638;10.134;2022-09-25T02:16:02;21.77;;;17.35;;
39322;SDS011;25036;53.638;10.134;2022-09-25T02:17:05;18.65;;;16.17;;
39322;SDS011;25036;53.638;10.134;2022-09-25T02:18:10;21.92;;;17.40;;
39322;SDS011;25036;53.638;10.134;2022-09-25T02:19:29;21.42;;;17.08;;
39322;SDS011;25036;53.638;10.134;2022-09-25T02:20:50;20.67;;;16.77;;
39322;SDS011;25036;53.638;10.134;2022-09-25T02:23:01;19.67;;;16.83;;
39322;SDS011;25036;53.638;10.134;2022-09-25T02:25:07;24.50;;;17.98;;
39322;SDS011;25036;53.638;10.134;2022-09-25T02:26:11;23.50;;;17.65;;
39322;SDS011;25036;53.638;10.134;2022-09-25T02:27:15;20.42;;;16.63;;
39322;SDS011;25036;53.638;10.134;2022-09-25T02:28:17;19.73;;;16.50;;
39322;SDS011;25036;53.638;10.134;2022-09-25T02:29:17;20.08;;;16.50;;
39322;SDS011;25036;53.638;10.134;2022-09-25T02:30:18;21.80;;;15.82;;
39322;SDS011;25036;53.638;10.134;2022-09-25T02:31:19;21.70;;;15.90;;
39322;SDS011;25036;53.638;10.134;2022-09-25T02:32:29;18.73;;;16.58;;
39322;SDS011;25036;53.638;10.134;2022-09-25T02:33:30;20.00;;;16.35;;
39322;SDS011;25036;53.638;10.134;2022-09-25T02:34:30;18.90;;;16.73;;
39322;SDS011;25036;53.638;10.134;2022-09-25T02:35:31;21.63;;;16.95;;
39322;SDS011;25036;53.638;10.134;2022-09-25T02:36:31;22.42;;;15.85;;
39322;SDS011;25036;53.638;10.134;2022-09-25T02:37:32;19.20;;;16.60;;
39322;SDS011;25036;53.638;10.134;2022-09-25T02:38:32;21.83;;;17.17;;
39322;SDS011;25036;53.638;10.134;2022-09-25T02:39:33;18.13;;;15.52;;
39322;SDS011;25036;53.638;10.134;2022-09-25T02:40:36;19.95;;;16.17;;
39322;SDS011;25036;53.638;10.134;2022-09-25T02:41:48;20.25;;;17.38;;
39322;SDS011;25036;53.638;10.134;2022-09-25T02:42:53;18.45;;;16.38;;
39322;SDS011;25036;53.638;10.134;2022-09-25T02:45:22;20.02;;;16.45;;
39322;SDS011;25036;53.638;10.134;2022-09-25T02:48:42;20.58;;;16.50;;
39322;SDS011;25036;53.638;10.134;2022-09-25T02:49:48;21.02;;;15.77;;
39322;SDS011;25036;53.638;10.134;2022-09-25T02:50:55;20.95;;;16.80;;
39322;SDS011;25036;53.638;10.134;2022-09-25T02:53:15;17.65;;;15.38;;
39322;SDS011;25036;53.638;10.134;2022-09-25T02:54:22;17.52;;;15.48;;
39322;SDS011;25036;53.638;10.134;2022-09-25T02:55:25;21.90;;;16.17;;
39322;SDS011;25036;53.638;10.134;2022-09-25T02:56:41;17.50;;;14.98;;
39322;SDS011;25036;53.638;10.134;2022-09-25T02:57:49;17.13;;;14.55;;
39322;SDS011;25036;53.638;10.134;2022-09-25T02:58:51;20.25;;;15.18;;
39322;SDS011;25036;53.638;10.134;2022-09-25T02:59:53;20.30;;;16.42;;
39322;SDS011;25036;53.638;10.134;2022-09-25T03:00:55;19.90;;;15.38;;
39322;SDS011;25036;53.638;10.134;2022-09-25T03:01:56;20.75;;;16.13;;
39322;SDS011;25036;53.638;10.134;2022-09-25T03:02:57;20.10;;;15.50;;
39322;SDS011;25036;53.638;10.134;2022-09-25T03:03:58;18.75;;;15.60;;
39322;SDS011;25036;53.638;10.134;2022-09-25T03:04:59;18.95;;;15.32;;
39322;SDS011;25036;53.638;10.134;2022-09-25T03:06:01;18.60;;;16.00;;
39322;SDS011;25036;53.638;10.134;2022-09-25T03:07:02;19.50;;;15.80;;
39322;SDS011;25036;53.638;10.134;2022-09-25T03:08:03;18.70;;;15.93;;
39322;SDS011;25036;53.638;10.134;2022-09-25T03:09:22;22.67;;;15.32;;
39322;SDS011;25036;53.638;10.134;2022-09-25T03:10:23;18.25;;;14.93;;
39322;SDS011;25036;53.638;10.134;2022-09-25T03:11:25;19.02;;;14.98;;
39322;SDS011;25036;53.638;10.134;2022-09-25T03:12:28;18.33;;;15.43;;
39322;SDS011;25036;53.638;10.134;2022-09-25T03:13:34;20.05;;;15.60;;
39322;SDS011;25036;53.638;10.134;2022-09-25T03:14:35;19.35;;;14.90;;
39322;SDS011;25036;53.638;10.134;2022-09-25T03:15:35;20.93;;;15.53;;
39322;SDS011;25036;53.638;10.134;2022-09-25T03:16:43;18.50;;;14.85;;
39322;SDS011;25036;53.638;10.134;2022-09-25T03:17:45;19.38;;;16.23;;
39322;SDS011;25036;53.638;10.134;2022-09-25T03:18:47;17.33;;;15.07;;
39322;SDS011;25036;53.638;10.134;2022-09-25T03:19:47;18.80;;;15.85;;
39322;SDS011;25036;53.638;10.134;2022-09-25T03:20:47;18.07;;;14.30;;
39322;SDS011;25036;53.638;10.134;2022-09-25T03:21:47;17.40;;;14.53;;
39322;SDS011;25036;53.638;10.134;2022-09-25T03:22:47;20.02;;;15.93;;
39322;SDS011;25036;53.638;10.134;2022-09-25T03:23:48;18.73;;;15.50;;
39322;SDS011;25036;53.638;10.134;2022-09-25T03:24:48;17.20;;;14.50;;
39322;SDS011;25036;53.638;10.134;2022-09-25T03:25:51;18.48;;;15.82;;
39322;SDS011;25036;53.638;10.134;2022-09-25T03:26:53;18.15;;;14.95;;
39322;SDS011;25036;53.638;10.134;2022-09-25T03:27:53;16.40;;;14.55;;
39322;SDS011;25036;53.638;10.134;2022-09-25T03:28:53;19.40;;;14.70;;
39322;SDS011;25036;53.638;10.134;2022-09-25T03:29:53;17.20;;;14.30;;
39322;SDS011;25036;53.638;10.134;2022-09-25T03:30:55;22.10;;;14.73;;
39322;SDS011;25036;53.638;10.134;2022-09-25T03:31:55;17.38;;;14.70;;
39322;SDS011;25036;53.638;10.134;2022-09-25T03:32:55;20.13;;;15.63;;
39322;SDS011;25036;53.638;10.134;2022-09-25T03:33:56;17.07;;;14.93;;
39322;SDS011;25036;53.638;10.134;2022-09-25T03:34:56;17.23;;;15.15;;
39322;SDS011;25036;53.638;10.134;2022-09-25T03:36:00;16.30;;;14.60;;
39322;SDS011;25036;53.638;10.134;2022-09-25T03:37:00;16.85;;;14.32;;
39322;SDS011;25036;53.638;10.134;2022-09-25T03:38:01;16.27;;;14.33;;
39322;SDS011;25036;53.638;10.134;2022-09-25T03:39:01;16.83;;;14.75;;
39322;SDS011;25036;53.638;10.134;2022-09-25T03:40:01;18.00;;;14.23;;
39322;SDS011;25036;53.638;10.134;2022-09-25T03:41:02;18.80;;;14.07;;
39322;SDS011;25036;53.638;10.134;2022-09-25T03:42:02;16.83;;;14.52;;
39322;SDS011;25036;53.638;10.134;2022-09-25T03:43:03;16.50;;;14.57;;
39322;SDS011;25036;53.638;10.134;2022-09-25T03:44:04;16.90;;;15.10;;
39322;SDS011;25036;53.638;10.134;2022-09-25T03:45:05;17.70;;;14.80;;
39322;SDS011;25036;53.638;10.134;2022-09-25T03:46:05;15.50;;;13.88;;
39322;SDS011;25036;53.638;10.134;2022-09-25T03:47:06;17.60;;;13.93;;
39322;SDS011;25036;53.638;10.134;2022-09-25T03:48:06;15.53;;;13.83;;
39322;SDS011;25036;53.638;10.134;2022-09-25T03:49:07;17.13;;;14.50;;
39322;SDS011;25036;53.638;10.134;2022-09-25T03:50:09;17.25;;;14.55;;
39322;SDS011;25036;53.638;10.134;2022-09-25T03:51:09;19.07;;;14.57;;
39322;SDS011;25036;53.638;10.134;2022-09-25T03:52:09;19.77;;;13.77;;
39322;SDS011;25036;53.638;10.134;2022-09-25T03:53:11;16.42;;;13.75;;
39322;SDS011;25036;53.638;10.134;2022-09-25T03:54:11;17.53;;;14.63;;
39322;SDS011;25036;53.638;10.134;2022-09-25T03:55:11;18.53;;;14.30;;
39322;SDS011;25036;53.638;10.134;2022-09-25T03:56:12;15.97;;;13.77;;
39322;SDS011;25036;53.638;10.134;2022-09-25T03:57:13;18.33;;;15.15;;
39322;SDS011;25036;53.638;10.134;2022-09-25T03:58:14;19.80;;;14.88;;
39322;SDS011;25036;53.638;10.134;2022-09-25T03:59:15;18.25;;;15.68;;
39322;SDS011;25036;53.638;10.134;2022-09-25T04:00:15;19.13;;;15.43;;
39322;SDS011;25036;53.638;10.134;2022-09-25T04:01:17;21.15;;;17.13;;
39322;SDS011;25036;53.638;10.134;2022-09-25T04:02:20;17.02;;;14.73;;
39322;SDS011;25036;53.638;10.134;2022-09-25T04:03:20;18.17;;;14.77;;
39322;SDS011;25036;53.638;10.134;2022-09-25T04:04:21;19.92;;;15.13;;
39322;SDS011;25036;53.638;10.134;2022-09-25T04:05:22;17.95;;;14.73;;
39322;SDS011;25036;53.638;10.134;2022-09-25T04:06:23;18.23;;;15.27;;
39322;SDS011;25036;53.638;10.134;2022-09-25T04:07:24;20.63;;;16.25;;
39322;SDS011;25036;53.638;10.134;2022-09-25T04:08:25;19.50;;;16.00;;
39322;SDS011;25036;53.638;10.134;2022-09-25T04:09:25;19.92;;;16.75;;
39322;SDS011;25036;53.638;10.134;2022-09-25T04:10:26;21.23;;;16.33;;
39322;SDS011;25036;53.638;10.134;2022-09-25T04:11:26;19.55;;;17.20;;
39322;SDS011;25036;53.638;10.134;2022-09-25T04:12:27;22.95;;;16.27;;
39322;SDS011;25036;53.638;10.134;2022-09-25T04:13:28;21.73;;;16.88;;
39322;SDS011;25036;53.638;10.134;2022-09-25T04:14:28;20.70;;;15.63;;
39322;SDS011;25036;53.638;10.134;2022-09-25T04:15:30;18.42;;;16.10;;
39322;SDS011;25036;53.638;10.134;2022-09-25T04:16:30;18.65;;;16.60;;
39322;SDS011;25036;53.638;10.134;2022-09-25T04:17:31;19.42;;;15.73;;
39322;SDS011;25036;53.638;10.134;2022-09-25T04:18:31;19.00;;;15.80;;
39322;SDS011;25036;53.638;10.134;2022-09-25T04:19:31;19.85;;;15.93;;
39322;SDS011;25036;53.638;10.134;2022-09-25T04:20:32;19.10;;;15.48;;
39322;SDS011;25036;53.638;10.134;2022-09-25T04:21:32;21.02;;;16.55;;
39322;SDS011;25036;53.638;10.134;2022-09-25T04:22:33;20.37;;;17.13;;
39322;SDS011;25036;53.638;10.134;2022-09-25T04:23:33;22.33;;;16.83;;
39322;SDS011;25036;53.638;10.134;2022-09-25T04:24:33;19.33;;;16.65;;
39322;SDS011;25036;53.638;10.134;2022-09-25T04:25:48;21.35;;;16.70;;
39322;SDS011;25036;53.638;10.134;2022-09-25T04:26:49;21.83;;;16.97;;
39322;SDS011;25036;53.638;10.134;2022-09-25T04:27:53;23.50;;;16.90;;
39322;SDS011;25036;53.638;10.134;2022-09-25T04:28:54;21.45;;;17.10;;
39322;SDS011;25036;53.638;10.134;2022-09-25T04:29:54;20.45;;;17.30;;
39322;SDS011;25036;53.638;10.134;2022-09-25T04:30:54;19.97;;;16.13;;
39322;SDS011;25036;53.638;10.134;2022-09-25T04:31:54;17.07;;;15.17;;
39322;SDS011;25036;53.638;10.134;2022-09-25T04:33:13;19.90;;;15.52;;
39322;SDS011;25036;53.638;10.134;2022-09-25T04:34:32;21.15;;;16.20;;
39322;SDS011;25036;53.638;10.134;2022-09-25T04:35:33;19.17;;;16.38;;
39322;SDS011;25036;53.638;10.134;2022-09-25T04:36:34;20.23;;;16.47;;
39322;SDS011;25036;53.638;10.134;2022-09-25T04:37:34;20.20;;;16.27;;
39322;SDS011;25036;53.638;10.134;2022-09-25T04:38:34;18.55;;;16.50;;
39322;SDS011;25036;53.638;10.134;2022-09-25T04:39:34;22.70;;;17.77;;
39322;SDS011;25036;53.638;10.134;2022-09-25T04:40:35;18.65;;;16.60;;
39322;SDS011;25036;53.638;10.134;2022-09-25T04:41:35;19.95;;;16.38;;
39322;SDS011;25036;53.638;10.134;2022-09-25T04:42:35;18.97;;;16.53;;
39322;SDS011;25036;53.638;10.134;2022-09-25T04:43:35;17.83;;;15.80;;
39322;SDS011;25036;53.638;10.134;2022-09-25T04:44:35;19.20;;;16.33;;
39322;SDS011;25036;53.638;10.134;2022-09-25T04:45:36;18.47;;;15.53;;
39322;SDS011;25036;53.638;10.134;2022-09-25T04:46:36;19.55;;;16.15;;
39322;SDS011;25036;53.638;10.134;2022-09-25T04:47:37;19.85;;;16.50;;
39322;SDS011;25036;53.638;10.134;2022-09-25T04:48:37;17.67;;;15.57;;
39322;SDS011;25036;53.638;10.134;2022-09-25T04:49:37;20.50;;;15.30;;
39322;SDS011;25036;53.638;10.134;2022-09-25T04:50:38;20.23;;;15.23;;
39322;SDS011;25036;53.638;10.134;2022-09-25T04:51:38;23.60;;;16.33;;
39322;SDS011;25036;53.638;10.134;2022-09-25T04:52:38;21.07;;;15.37;;
39322;SDS011;25036;53.638;10.134;2022-09-25T04:53:38;18.23;;;15.43;;
39322;SDS011;25036;53.638;10.134;2022-09-25T04:54:40;18.60;;;15.48;;
39322;SDS011;25036;53.638;10.134;2022-09-25T04:55:40;20.58;;;16.13;;
39322;SDS011;25036;53.638;10.134;2022-09-25T04:56:43;18.07;;;16.13;;
39322;SDS011;25036;53.638;10.134;2022-09-25T04:57:43;17.35;;;15.50;;
39322;SDS011;25036;53.638;10.134;2022-09-25T04:58:48;18.15;;;16.10;;
39322;SDS011;25036;53.638;10.134;2022-09-25T04:59:48;18.80;;;16.35;;
39322;SDS011;25036;53.638;10.134;2022-09-25T05:00:49;17.17;;;15.38;;
39322;SDS011;25036;53.638;10.134;2022-09-25T05:01:50;21.17;;;15.82;;
39322;SDS011;25036;53.638;10.134;2022-09-25T05:02:50;21.30;;;16.07;;
39322;SDS011;25036;53.638;10.134;2022-09-25T05:03:50;16.60;;;14.85;;
39322;SDS011;25036;53.638;10.134;2022-09-25T05:04:52;17.00;;;14.60;;
39322;SDS011;25036;53.638;10.134;2022-09-25T05:05:52;18.33;;;15.63;;
39322;SDS011;25036;53.638;10.134;2022-09-25T05:06:52;18.10;;;16.10;;
39322;SDS011;25036;53.638;10.134;2022-09-25T05:07:53;20.50;;;15.57;;
39322;SDS011;25036;53.638;10.134;2022-09-25T05:08:54;20.08;;;15.85;;
39322;SDS011;25036;53.638;10.134;2022-09-25T05:09:56;21.23;;;15.98;;
39322;SDS011;25036;53.638;10.134;2022-09-25T05:10:56;20.20;;;17.20;;
39322;SDS011;25036;53.638;10.134;2022-09-25T05:11:56;21.17;;;15.95;;
39322;SDS011;25036;53.638;10.134;2022-09-25T05:12:57;19.35;;;16.15;;
39322;SDS011;25036;53.638;10.134;2022-09-25T05:13:58;19.33;;;16.58;;
39322;SDS011;25036;53.638;10.134;2022-09-25T05:14:58;20.63;;;16.67;;
39322;SDS011;25036;53.638;10.134;2022-09-25T05:15:58;21.00;;;16.33;;
39322;SDS011;25036;53.638;10.134;2022-09-25T05:16:58;19.03;;;15.87;;
39322;SDS011;25036;53.638;10.134;2022-09-25T05:17:59;20.00;;;15.97;;
39322;SDS011;25036;53.638;10.134;2022-09-25T05:18:59;19.75;;;16.52;;
39322;SDS011;25036;53.638;10.134;2022-09-25T05:20:00;19.47;;;15.70;;
39322;SDS011;25036;53.638;10.134;2022-09-25T05:21:02;16.98;;;15.10;;
39322;SDS011;25036;53.638;10.134;2022-09-25T05:22:02;18.13;;;15.68;;
39322;SDS011;25036;53.638;10.134;2022-09-25T05:23:03;16.48;;;14.45;;
39322;SDS011;25036;53.638;10.134;2022-09-25T05:24:03;21.33;;;14.98;;
39322;SDS011;25036;53.638;10.134;2022-09-25T05:25:04;17.85;;;13.90;;
39322;SDS011;25036;53.638;10.134;2022-09-25T05:26:04;17.70;;;15.35;;
39322;SDS011;25036;53.638;10.134;2022-09-25T05:27:04;19.77;;;15.57;;
39322;SDS011;25036;53.638;10.134;2022-09-25T05:28:05;17.30;;;14.13;;
39322;SDS011;25036;53.638;10.134;2022-09-25T05:29:05;15.67;;;14.03;;
39322;SDS011;25036;53.638;10.134;2022-09-25T05:30:05;19.35;;;15.30;;
39322;SDS011;25036;53.638;10.134;2022-09-25T05:31:08;18.30;;;14.70;;
39322;SDS011;25036;53.638;10.134;2022-09-25T05:32:08;19.30;;;14.70;;
39322;SDS011;25036;53.638;10.134;2022-09-25T05:33:08;19.00;;;15.50;;
39322;SDS011;25036;53.638;10.134;2022-09-25T05:34:08;18.60;;;14.25;;
39322;SDS011;25036;53.638;10.134;2022-09-25T05:35:09;18.15;;;15.20;;
39322;SDS011;25036;53.638;10.134;2022-09-25T05:36:10;18.65;;;14.98;;
39322;SDS011;25036;53.638;10.134;2022-09-25T05:37:11;17.58;;;14.77;;
39322;SDS011;25036;53.638;10.134;2022-09-25T05:38:11;18.23;;;15.95;;
39322;SDS011;25036;53.638;10.134;2022-09-25T05:39:11;18.87;;;15.07;;
39322;SDS011;25036;53.638;10.134;2022-09-25T05:40:12;19.67;;;15.57;;
39322;SDS011;25036;53.638;10.134;2022-09-25T05:41:14;21.63;;;15.23;;
39322;SDS011;25036;53.638;10.134;2022-09-25T05:42:14;18.63;;;16.65;;
39322;SDS011;25036;53.638;10.134;2022-09-25T05:43:17;20.02;;;16.17;;
39322;SDS011;25036;53.638;10.134;2022-09-25T05:44:17;20.02;;;16.50;;
39322;SDS011;25036;53.638;10.134;2022-09-25T05:45:18;19.50;;;16.63;;
39322;SDS011;25036;53.638;10.134;2022-09-25T05:46:19;21.67;;;17.33;;
39322;SDS011;25036;53.638;10.134;2022-09-25T05:47:19;20.17;;;15.73;;
39322;SDS011;25036;53.638;10.134;2022-09-25T05:48:19;19.67;;;16.60;;
39322;SDS011;25036;53.638;10.134;2022-09-25T05:49:19;17.83;;;14.77;;
39322;SDS011;25036;53.638;10.134;2022-09-25T05:50:20;19.70;;;16.60;;
39322;SDS011;25036;53.638;10.134;2022-09-25T05:51:20;18.47;;;16.50;;
39322;SDS011;25036;53.638;10.134;2022-09-25T05:52:20;21.03;;;17.47;;
39322;SDS011;25036;53.638;10.134;2022-09-25T05:53:20;19.25;;;16.95;;
39322;SDS011;25036;53.638;10.134;2022-09-25T05:54:20;20.48;;;17.67;;
39322;SDS011;25036;53.638;10.134;2022-09-25T05:55:20;21.80;;;17.53;;
39322;SDS011;25036;53.638;10.134;2022-09-25T05:56:21;20.10;;;17.93;;
39322;SDS011;25036;53.638;10.134;2022-09-25T05:57:23;21.02;;;17.98;;
39322;SDS011;25036;53.638;10.134;2022-09-25T05:58:24;20.53;;;17.17;;
39322;SDS011;25036;53.638;10.134;2022-09-25T05:59:24;21.65;;;17.33;;
39322;SDS011;25036;53.638;10.134;2022-09-25T06:00:24;19.67;;;17.07;;
39322;SDS011;25036;53.638;10.134;2022-09-25T06:01:26;20.85;;;17.35;;
39322;SDS011;25036;53.638;10.134;2022-09-25T06:02:26;22.37;;;17.87;;
39322;SDS011;25036;53.638;10.134;2022-09-25T06:03:26;21.25;;;18.02;;
39322;SDS011;25036;53.638;10.134;2022-09-25T06:04:28;22.88;;;17.65;;
39322;SDS011;25036;53.638;10.134;2022-09-25T06:05:28;22.10;;;18.17;;
39322;SDS011;25036;53.638;10.134;2022-09-25T06:06:29;20.58;;;17.70;;
39322;SDS011;25036;53.638;10.134;2022-09-25T06:07:30;22.65;;;17.80;;
39322;SDS011;25036;53.638;10.134;2022-09-25T06:08:31;21.80;;;16.83;;
39322;SDS011;25036;53.638;10.134;2022-09-25T06:09:31;22.42;;;18.02;;
39322;SDS011;25036;53.638;10.134;2022-09-25T06:10:31;22.23;;;17.47;;
39322;SDS011;25036;53.638;10.134;2022-09-25T06:11:32;20.10;;;16.58;;
39322;SDS011;25036;53.638;10.134;2022-09-25T06:12:32;21.40;;;17.88;;
39322;SDS011;25036;53.638;10.134;2022-09-25T06:13:33;21.27;;;17.50;;
39322;SDS011;25036;53.638;10.134;2022-09-25T06:14:33;20.42;;;18.25;;
39322;SDS011;25036;53.638;10.134;2022-09-25T06:15:35;20.83;;;18.55;;
39322;SDS011;25036;53.638;10.134;2022-09-25T06:16:36;23.25;;;18.23;;
39322;SDS011;25036;53.638;10.134;2022-09-25T06:17:36;21.23;;;17.07;;